Time;durP1;ratioP1;P1;durP2;ratioP2;P2;SDS_P1;SDS_P2;PMS_P1;PMS_P2;Temp;Humidity;BMP_temperature;BMP_pressure;BME280_temperature;BME280_humidity;BME280_pressure;Samples;Min_cycle;Max_cycle;Signal;HPM_P1;HPM_P2
2021/07/10 00:00:18;;;;;;;6.95;6.33;;;;;;;22.70;64.27;100238.08;1741617;82;21078;-74
2021/07/10 00:02:45;;;;;;;9.00;7.33;;;;;;;22.68;64.42;100240.35;1741485;82;20895;-73
2021/07/10 00:05:14;;;;;;;7.90;6.67;;;;;;;22.68;64.40;100234.31;1741671;82;21010;-72
2021/07/10 00:07:41;;;;;;;7.22;6.20;;;;;;;22.68;64.40;100236.23;1741876;82;21583;-71
2021/07/10 00:10:12;;;;;;;12.58;7.05;;;;;;;22.64;64.47;100238.78;1724284;82;21532;-71
2021/07/10 00:12:38;;;;;;;11.28;8.08;;;;;;;22.62;65.24;100239.68;1741599;82;21798;-72
2021/07/10 00:15:07;;;;;;;8.13;5.80;;;;;;;22.56;65.00;100236.82;1724290;82;21541;-72
2021/07/10 00:17:34;;;;;;;7.70;6.97;;;;;;;22.54;65.01;100228.13;1724518;82;21042;-71
2021/07/10 00:20:05;;;;;;;8.90;6.20;;;;;;;22.48;65.34;100232.12;1724374;82;21082;-70
2021/07/10 00:22:31;;;;;;;9.13;8.13;;;;;;;22.41;65.93;100224.89;1741470;82;21492;-72
2021/07/10 00:24:58;;;;;;;14.90;6.67;;;;;;;22.32;66.32;100230.90;1741601;82;21132;-72
2021/07/10 00:27:24;;;;;;;9.80;7.42;;;;;;;22.28;66.32;100227.98;1731820;82;20931;-72
2021/07/10 00:29:50;;;;;;;8.40;6.80;;;;;;;22.33;66.47;100234.70;1732136;82;20995;-72
2021/07/10 00:32:17;;;;;;;8.73;5.85;;;;;;;22.31;66.20;100230.64;1714203;83;21060;-72
2021/07/10 00:34:43;;;;;;;11.78;8.38;;;;;;;22.20;66.64;100221.09;1718889;82;21061;-73
2021/07/10 00:37:09;;;;;;;9.78;6.97;;;;;;;22.09;67.41;100222.72;1741688;82;21138;-72
2021/07/10 00:39:36;;;;;;;8.30;7.50;;;;;;;22.13;67.61;100215.49;1724307;82;21000;-73
2021/07/10 00:42:02;;;;;;;12.45;7.10;;;;;;;22.11;67.95;100214.98;1741542;82;21027;-70
2021/07/10 00:44:29;;;;;;;11.53;7.87;;;;;;;22.07;68.03;100215.37;1747843;81;21540;-73
2021/07/10 00:46:57;;;;;;;13.70;7.42;;;;;;;22.04;68.40;100219.30;1753448;81;20983;-72
2021/07/10 00:49:23;;;;;;;10.00;7.42;;;;;;;22.12;68.39;100217.97;1733203;81;21048;-73
2021/07/10 00:51:49;;;;;;;13.65;8.63;;;;;;;22.27;67.83;100212.66;1734465;81;20963;-73
2021/07/10 00:54:16;;;;;;;13.62;7.42;;;;;;;22.31;67.51;100206.79;1755792;81;20984;-72
2021/07/10 00:56:45;;;;;;;9.63;7.17;;;;;;;22.33;67.38;100203.74;1744182;81;21350;-72
2021/07/10 00:59:12;;;;;;;18.95;14.90;;;;;;;22.25;67.64;100202.59;1753504;81;21026;-73
2021/07/10 01:01:38;;;;;;;10.85;6.62;;;;;;;22.16;67.83;100198.97;1753512;81;21539;-74
2021/07/10 01:04:04;;;;;;;10.55;7.78;;;;;;;22.08;67.54;100205.22;1731638;81;21450;-74
2021/07/10 01:06:31;;;;;;;8.03;6.87;;;;;;;22.00;68.28;100212.27;1731851;81;20875;-72
2021/07/10 01:08:57;;;;;;;9.23;6.47;;;;;;;21.95;68.07;100199.27;1750834;81;21056;-73
2021/07/10 01:11:24;;;;;;;6.78;5.60;;;;;;;21.95;67.79;100203.37;1752828;81;21506;-73
2021/07/10 01:13:52;;;;;;;6.95;5.97;;;;;;;21.95;67.69;100207.48;1746834;81;20911;-74
2021/07/10 01:16:19;;;;;;;8.93;6.05;;;;;;;21.93;67.66;100205.05;1740446;82;20990;-73
2021/07/10 01:18:47;;;;;;;12.18;5.80;;;;;;;21.94;67.69;100208.03;1753324;81;21018;-74
2021/07/10 01:21:13;;;;;;;8.05;6.15;;;;;;;21.97;67.61;100199.73;1753060;81;21026;-72
2021/07/10 01:23:39;;;;;;;7.40;6.12;;;;;;;22.00;67.51;100201.31;1757270;81;20970;-73
2021/07/10 01:26:05;;;;;;;9.00;6.70;;;;;;;22.03;67.42;100197.94;1750701;81;21049;-72
2021/07/10 01:28:32;;;;;;;10.10;6.33;;;;;;;22.07;67.28;100191.27;1716871;82;21011;-74
2021/07/10 01:30:58;;;;;;;6.62;5.67;;;;;;;22.08;67.17;100192.33;1741192;81;21029;-73
2021/07/10 01:33:24;;;;;;;8.25;6.62;;;;;;;22.10;67.18;100190.66;1740632;82;21023;-73
2021/07/10 01:35:51;;;;;;;11.45;8.15;;;;;;;22.08;67.16;100190.96;1740116;82;21019;-73
2021/07/10 01:38:19;;;;;;;9.03;7.70;;;;;;;22.03;67.33;100191.09;1752244;81;20986;-73
2021/07/10 01:40:46;;;;;;;10.98;7.58;;;;;;;21.90;67.97;100191.95;1733849;81;21077;-73
2021/07/10 01:43:13;;;;;;;10.75;7.33;;;;;;;21.81;68.31;100191.09;1752942;81;21042;-72
2021/07/10 01:45:39;;;;;;;9.83;8.00;;;;;;;21.79;68.29;100193.88;1753016;81;20931;-74
2021/07/10 01:48:07;;;;;;;12.47;8.20;;;;;;;21.73;68.36;100189.08;1753666;81;21046;-73
2021/07/10 01:50:33;;;;;;;9.80;7.42;;;;;;;21.71;68.42;100186.67;1742256;81;21266;-73
2021/07/10 01:53:01;;;;;;;13.72;8.43;;;;;;;21.73;68.43;100184.41;1740107;82;21492;-73
2021/07/10 01:55:28;;;;;;;8.10;6.47;;;;;;;21.78;68.29;100183.48;1716798;82;20995;-73
2021/07/10 01:57:57;;;;;;;8.93;7.12;;;;;;;21.81;68.14;100180.14;1750901;81;21531;-74
2021/07/10 02:00:28;;;;;;;8.65;6.87;;;;;;;21.86;68.01;100182.75;1753171;81;21026;-73
2021/07/10 02:02:55;;;;;;;8.60;6.55;;;;;;;21.95;67.66;100180.09;1753072;81;20994;-73
2021/07/10 02:05:24;;;;;;;7.30;6.60;;;;;;;21.97;67.28;100181.38;1752757;81;20919;-73
2021/07/10 02:07:53;;;;;;;7.25;6.03;;;;;;;21.98;67.08;100170.67;1745556;81;21653;-73
2021/07/10 02:10:21;;;;;;;9.63;7.08;;;;;;;21.96;67.10;100177.05;1740123;82;21043;-73
2021/07/10 02:12:51;;;;;;;8.53;7.37;;;;;;;21.90;67.23;100181.55;1745959;81;20931;-73
2021/07/10 02:15:17;;;;;;;17.70;7.47;;;;;;;21.83;67.48;100177.06;1730478;81;21523;-73
2021/07/10 02:17:44;;;;;;;12.10;7.25;;;;;;;21.74;67.78;100180.56;1741651;81;21061;-73
2021/07/10 02:20:19;;;;;;;8.60;7.17;;;;;;;21.73;67.88;100182.23;1751288;81;21046;-73
2021/07/10 02:22:47;;;;;;;11.05;6.42;;;;;;;21.76;67.86;100176.16;1753057;81;21010;-73
2021/07/10 02:25:15;;;;;;;16.70;7.12;;;;;;;21.80;67.74;100180.44;1749465;81;21619;-72
2021/07/10 02:27:41;;;;;;;10.98;6.33;;;;;;;21.78;67.73;100178.00;1730188;81;21767;-73
2021/07/10 02:30:13;;;;;;;9.55;8.23;;;;;;;21.80;67.68;100179.07;1753170;81;21531;-73
2021/07/10 02:32:40;;;;;;;14.43;7.60;;;;;;;21.84;67.60;100174.02;1742115;81;21567;-73
2021/07/10 02:35:10;;;;;;;8.88;7.15;;;;;;;21.84;67.63;100175.95;1717055;81;21515;-72
2021/07/10 02:37:39;;;;;;;9.88;7.92;;;;;;;21.85;67.64;100179.75;1754946;81;37089;-72
2021/07/10 02:40:11;;;;;;;14.18;7.05;;;;;;;21.86;67.48;100175.09;1755872;81;21532;-73
2021/07/10 02:42:37;;;;;;;12.93;8.15;;;;;;;21.86;67.79;100172.35;1755052;81;20904;-73
2021/07/10 02:45:07;;;;;;;10.13;7.90;;;;;;;21.90;67.74;100176.89;1753219;81;20935;-73
2021/07/10 02:47:34;;;;;;;8.08;6.87;;;;;;;21.96;68.02;100179.78;1736018;81;20995;-73
2021/07/10 02:50:00;;;;;;;12.53;7.40;;;;;;;22.01;67.89;100178.84;1711549;81;21049;-73
2021/07/10 02:52:27;;;;;;;8.95;8.05;;;;;;;22.06;67.69;100171.27;1743559;81;21085;-73
2021/07/10 02:54:53;;;;;;;11.30;6.87;;;;;;;22.14;67.51;100173.83;1740145;82;21025;-73
2021/07/10 02:57:22;;;;;;;11.25;8.13;;;;;;;22.20;67.19;100171.77;1751230;81;20935;-73
2021/07/10 02:59:49;;;;;;;12.20;7.87;;;;;;;22.25;67.09;100172.44;1731554;81;21515;-72
2021/07/10 03:02:15;;;;;;;21.27;8.60;;;;;;;22.33;66.81;100168.11;1751894;81;20996;-72
2021/07/10 03:04:43;;;;;;;12.70;8.25;;;;;;;22.36;66.52;100169.65;1731324;81;21716;-72
2021/07/10 03:07:11;;;;;;;13.60;7.97;;;;;;;22.39;66.39;100166.30;1731766;81;21062;-72
2021/07/10 03:09:37;;;;;;;8.53;7.25;;;;;;;22.39;66.41;100163.55;1753565;81;20952;-72
2021/07/10 03:12:05;;;;;;;11.95;7.33;;;;;;;22.45;66.25;100167.75;1753235;81;21022;-72
2021/07/10 03:14:31;;;;;;;12.10;8.08;;;;;;;22.46;66.19;100170.74;1749652;81;20994;-71
2021/07/10 03:16:58;;;;;;;14.93;8.43;;;;;;;22.44;66.25;100170.83;1750737;81;21091;-73
2021/07/10 03:19:24;;;;;;;14.75;9.78;;;;;;;22.45;66.13;100171.86;1747081;81;21061;-73
2021/07/10 03:21:52;;;;;;;9.48;7.80;;;;;;;22.49;66.02;100172.05;1740115;82;21283;-72
2021/07/10 03:24:20;;;;;;;13.60;8.53;;;;;;;22.57;65.81;100167.16;1746313;81;21560;-72
2021/07/10 03:26:47;;;;;;;21.23;9.00;;;;;;;22.60;65.63;100167.88;1755759;81;21007;-72
2021/07/10 03:29:13;;;;;;;13.65;9.58;;;;;;;22.60;65.52;100174.17;1755791;81;21107;-73
2021/07/10 03:31:39;;;;;;;10.23;8.05;;;;;;;22.64;65.30;100171.59;1755489;81;21043;-73
2021/07/10 03:34:06;;;;;;;13.00;9.05;;;;;;;22.69;65.17;100168.71;1728383;81;21007;-73
2021/07/10 03:36:32;;;;;;;13.18;8.95;;;;;;;22.71;65.04;100167.88;1752910;81;21077;-74
2021/07/10 03:38:58;;;;;;;12.43;8.30;;;;;;;22.72;65.18;100164.57;1731754;81;21011;-72
2021/07/10 03:41:24;;;;;;;10.55;9.18;;;;;;;22.72;64.73;100170.87;1753505;81;20987;-72
2021/07/10 03:43:53;;;;;;;17.20;10.08;;;;;;;22.62;65.17;100167.02;1753193;81;21526;-73
2021/07/10 03:46:19;;;;;;;20.75;8.88;;;;;;;22.51;65.49;100166.48;1753455;81;20982;-72
2021/07/10 03:48:47;;;;;;;12.10;7.67;;;;;;;22.45;65.59;100170.48;1726787;81;20989;-73
2021/07/10 03:51:14;;;;;;;18.77;8.25;;;;;;;22.45;65.34;100162.27;1752966;81;21010;-73
2021/07/10 03:53:40;;;;;;;13.30;7.65;;;;;;;22.48;65.44;100163.02;1753131;81;21941;-73
2021/07/10 03:56:08;;;;;;;12.07;7.37;;;;;;;22.48;65.57;100160.28;1755317;81;20932;-73
2021/07/10 03:58:34;;;;;;;14.75;7.87;;;;;;;22.49;65.56;100161.88;1755933;81;21002;-73
2021/07/10 04:01:01;;;;;;;11.22;9.15;;;;;;;22.52;65.23;100158.52;1742621;81;21003;-74
2021/07/10 04:03:27;;;;;;;8.70;7.78;;;;;;;22.58;65.10;100155.88;1740457;82;21022;-75
2021/07/10 04:05:54;;;;;;;22.73;8.08;;;;;;;22.64;64.92;100153.00;1716833;82;22123;-75
2021/07/10 04:08:20;;;;;;;10.58;7.72;;;;;;;22.72;64.82;100152.23;1740142;82;20966;-74
2021/07/10 04:10:47;;;;;;;13.95;9.63;;;;;;;22.81;64.67;100145.64;1751668;81;21022;-73
2021/07/10 04:13:14;;;;;;;29.10;21.40;;;;;;;22.91;64.42;100145.33;1753231;81;20998;-73
2021/07/10 04:15:42;;;;;;;15.00;10.60;;;;;;;23.00;63.86;100144.78;1754874;81;20960;-73
2021/07/10 04:18:08;;;;;;;11.83;8.55;;;;;;;23.11;63.52;100149.39;1754198;81;21328;-73
2021/07/10 04:20:35;;;;;;;12.58;8.50;;;;;;;23.20;63.28;100143.91;1753313;81;21037;-74
2021/07/10 04:23:01;;;;;;;17.67;7.40;;;;;;;23.30;62.99;100145.77;1731898;81;21484;-73
2021/07/10 04:25:29;;;;;;;28.70;7.85;;;;;;;23.40;62.65;100146.78;1718830;82;21090;-74
2021/07/10 04:27:55;;;;;;;12.25;8.75;;;;;;;23.48;62.34;100137.54;1716838;82;21070;-74
2021/07/10 04:30:22;;;;;;;13.85;8.60;;;;;;;23.51;62.22;100134.13;1740310;82;21121;-74
2021/07/10 04:32:50;;;;;;;15.88;9.05;;;;;;;23.55;61.51;100137.87;1748390;81;21041;-73
2021/07/10 04:35:19;;;;;;;21.33;8.10;;;;;;;23.58;61.48;100135.27;1753464;81;20916;-73
2021/07/10 04:37:46;;;;;;;25.23;8.00;;;;;;;23.60;61.73;100134.36;1754251;81;20984;-73
2021/07/10 04:40:13;;;;;;;28.77;9.13;;;;;;;23.67;61.63;100132.50;1742103;81;21545;-74
2021/07/10 04:42:40;;;;;;;35.30;9.03;;;;;;;23.70;61.60;100132.66;1746676;81;21188;-74
2021/07/10 04:45:10;;;;;;;26.87;9.68;;;;;;;23.71;61.72;100130.72;1748172;81;20974;-75
2021/07/10 04:47:36;;;;;;;27.58;8.90;;;;;;;23.76;61.72;100126.42;1741628;82;20975;-74
2021/07/10 04:50:05;;;;;;;38.55;10.68;;;;;;;23.79;61.65;100125.20;1724334;82;21006;-75
2021/07/10 04:52:31;;;;;;;60.58;15.95;;;;;;;23.87;61.29;100120.83;1741567;82;20979;-74
2021/07/10 04:54:58;;;;;;;58.85;14.15;;;;;;;23.95;61.10;100121.36;1741538;82;21196;-75
2021/07/10 04:57:24;;;;;;;38.40;12.70;;;;;;;24.04;60.90;100121.33;1734575;82;20995;-74
2021/07/10 04:59:50;;;;;;;44.95;16.00;;;;;;;24.13;60.64;100123.47;1710647;82;20971;-74
2021/07/10 05:02:18;;;;;;;47.30;15.35;;;;;;;24.21;60.27;100122.12;1709609;83;21013;-74
2021/07/10 05:04:44;;;;;;;51.30;16.35;;;;;;;24.30;59.94;100125.63;1720450;82;21043;-74
2021/07/10 05:07:10;;;;;;;61.92;17.55;;;;;;;24.36;59.58;100113.88;1741818;82;21711;-74
2021/07/10 05:09:37;;;;;;;90.35;19.55;;;;;;;24.44;59.41;100117.15;1741470;82;20925;-74
2021/07/10 05:12:05;;;;;;;68.05;17.73;;;;;;;24.53;59.17;100128.91;1724165;82;21032;-74
2021/07/10 05:14:31;;;;;;;65.32;13.60;;;;;;;24.62;58.69;100125.53;1740618;82;22266;-75
2021/07/10 05:16:57;;;;;;;85.95;15.72;;;;;;;24.72;58.31;100132.03;1741621;82;21516;-75
2021/07/10 05:19:24;;;;;;;57.65;16.25;;;;;;;24.81;58.04;100133.91;1741819;82;21135;-74
2021/07/10 05:21:50;;;;;;;50.73;13.50;;;;;;;24.85;57.29;100125.22;1741631;82;21010;-74
2021/07/10 05:24:19;;;;;;;45.23;13.45;;;;;;;24.87;57.52;100120.23;1741704;82;21038;-74
2021/07/10 05:26:46;;;;;;;58.85;17.48;;;;;;;24.88;57.61;100123.23;1724283;82;21042;-73
2021/07/10 05:29:12;;;;;;;56.05;16.55;;;;;;;24.94;57.60;100121.89;1741455;82;21007;-74
2021/07/10 05:31:39;;;;;;;40.45;14.38;;;;;;;24.97;57.87;100126.72;1741485;82;21122;-75
2021/07/10 05:34:06;;;;;;;33.38;13.08;;;;;;;24.97;57.79;100119.27;1741502;82;20978;-75
2021/07/10 05:36:32;;;;;;;38.65;11.80;;;;;;;25.00;57.70;100121.91;1741328;82;21004;-74
2021/07/10 05:38:58;;;;;;;40.05;14.30;;;;;;;25.08;57.57;100128.72;1741521;82;21027;-73
2021/07/10 05:41:25;;;;;;;38.83;12.70;;;;;;;25.15;57.12;100124.06;1741608;82;21060;-72
2021/07/10 05:43:58;;;;;;;75.87;16.90;;;;;;;25.24;56.78;100125.36;1724485;82;21751;-71
2021/07/10 05:46:24;;;;;;;47.23;15.53;;;;;;;25.31;56.62;100122.31;1736901;81;20994;-72
2021/07/10 05:48:51;;;;;;;40.25;13.13;;;;;;;25.40;56.32;100120.86;1735978;82;21014;-71
2021/07/10 05:51:17;;;;;;;40.65;12.93;;;;;;;25.48;56.39;100119.39;1736261;82;20995;-75
2021/07/10 05:53:45;;;;;;;16.50;9.50;;;;;;;25.58;56.54;100119.57;1736294;82;20947;-74
2021/07/10 05:56:11;;;;;;;12.70;7.17;;;;;;;25.67;56.46;100120.86;1718493;82;21575;-74
2021/07/10 05:58:38;;;;;;;24.92;10.15;;;;;;;25.75;56.03;100122.17;1736085;82;21535;-74
2021/07/10 06:01:06;;;;;;;23.85;10.38;;;;;;;25.81;55.57;100118.59;1736600;82;21481;-74
2021/07/10 06:03:32;;;;;;;28.73;11.38;;;;;;;25.84;55.65;100121.50;1736465;82;21009;-73
2021/07/10 06:05:59;;;;;;;28.98;9.53;;;;;;;25.88;55.65;100121.05;1719080;82;21087;-73
2021/07/10 06:08:26;;;;;;;17.20;8.93;;;;;;;25.87;55.63;100123.56;1719285;82;21119;-74
2021/07/10 06:10:53;;;;;;;29.67;11.20;;;;;;;25.87;55.57;100126.31;1736263;82;21711;-74
2021/07/10 06:13:19;;;;;;;23.35;9.45;;;;;;;25.92;55.53;100124.72;1719116;82;21035;-72
2021/07/10 06:15:45;;;;;;;27.62;9.53;;;;;;;25.99;55.53;100126.92;1735539;82;20977;-74
2021/07/10 06:18:11;;;;;;;33.90;10.58;;;;;;;26.08;55.22;100117.17;1719378;82;20984;-74
2021/07/10 06:20:39;;;;;;;38.33;13.30;;;;;;;26.18;55.24;100117.53;1736318;82;21016;-73
2021/07/10 06:23:06;;;;;;;48.63;12.47;;;;;;;26.27;54.30;100122.39;1735785;82;20893;-74
2021/07/10 06:25:33;;;;;;;43.60;11.55;;;;;;;26.37;54.24;100118.37;1735995;82;20985;-73
2021/07/10 06:27:59;;;;;;;36.60;11.22;;;;;;;26.47;53.76;100122.83;1735839;82;21568;-74
2021/07/10 06:30:25;;;;;;;39.98;13.32;;;;;;;26.58;53.01;100120.42;1735968;82;21059;-75
2021/07/10 06:32:51;;;;;;;32.78;12.75;;;;;;;26.66;52.48;100120.08;1735891;82;21331;-75
2021/07/10 06:35:18;;;;;;;49.27;13.13;;;;;;;26.69;51.56;100122.14;1719297;82;20919;-76
2021/07/10 06:37:45;;;;;;;36.63;12.25;;;;;;;26.68;51.47;100115.00;1736193;82;20916;-74
2021/07/10 06:40:13;;;;;;;36.83;10.53;;;;;;;26.72;51.44;100116.72;1736618;82;21519;-76
2021/07/10 06:42:41;;;;;;;28.07;8.70;;;;;;;26.72;51.54;100119.48;1736096;82;21027;-75
2021/07/10 06:45:10;;;;;;;40.52;12.07;;;;;;;26.74;51.82;100117.77;1743921;82;21563;-75
2021/07/10 06:47:36;;;;;;;44.65;12.00;;;;;;;26.81;51.94;100122.91;1736059;82;21000;-76
2021/07/10 06:50:08;;;;;;;31.60;11.25;;;;;;;26.93;51.09;100120.75;1718464;82;21011;-74
2021/07/10 06:52:35;;;;;;;38.50;9.47;;;;;;;27.05;50.99;100123.47;1736413;82;20998;-76
2021/07/10 06:55:06;;;;;;;28.05;10.70;;;;;;;27.16;49.77;100122.41;1736111;82;21071;-78
2021/07/10 06:57:32;;;;;;;23.45;7.42;;;;;;;27.23;49.10;100126.77;1736091;82;21918;-76
2021/07/10 06:59:58;;;;;;;32.60;9.53;;;;;;;27.31;48.38;100125.81;1718929;82;21000;-76
2021/07/10 07:02:25;;;;;;;23.87;10.03;;;;;;;27.42;48.78;100127.50;1736448;82;21143;-77
2021/07/10 07:04:51;;;;;;;13.55;6.60;;;;;;;27.46;48.61;100126.45;1736129;82;21132;-76
2021/07/10 07:07:17;;;;;;;31.23;8.08;;;;;;;27.46;45.06;100126.45;1735990;82;21183;-77
2021/07/10 07:09:44;;;;;;;9.80;5.67;;;;;;;27.49;45.53;100125.77;1719041;82;21958;-74
2021/07/10 07:12:12;;;;;;;19.27;6.87;;;;;;;27.54;46.76;100126.89;1736264;82;20932;-74
2021/07/10 07:14:39;;;;;;;23.32;7.58;;;;;;;27.61;47.28;100121.58;1736041;82;20943;-75
2021/07/10 07:17:07;;;;;;;16.40;7.70;;;;;;;27.68;47.44;100127.28;1719133;82;20951;-74
2021/07/10 07:19:33;;;;;;;15.98;7.67;;;;;;;27.77;47.26;100125.73;1736143;82;21071;-75
2021/07/10 07:21:59;;;;;;;9.28;6.17;;;;;;;27.84;46.10;100120.98;1736103;82;21167;-75
2021/07/10 07:24:26;;;;;;;6.50;5.17;;;;;;;27.93;44.85;100120.23;1744159;82;20980;-75
2021/07/10 07:26:52;;;;;;;8.40;5.05;;;;;;;28.01;43.14;100118.67;1736350;82;21497;-74
2021/07/10 07:29:19;;;;;;;7.53;5.25;;;;;;;28.10;41.79;100125.44;1736117;82;21654;-72
2021/07/10 07:31:46;;;;;;;14.93;6.12;;;;;;;28.16;40.73;100120.67;1736170;82;21031;-73
2021/07/10 07:34:12;;;;;;;15.28;5.92;;;;;;;28.23;41.94;100115.10;1719174;82;21851;-74
2021/07/10 07:36:39;;;;;;;14.90;6.50;;;;;;;28.27;42.20;100118.18;1719280;82;20940;-74
2021/07/10 07:39:06;;;;;;;14.43;5.75;;;;;;;28.35;42.58;100121.91;1736127;82;20948;-74
2021/07/10 07:41:35;;;;;;;21.90;7.97;;;;;;;28.44;42.51;100120.56;1735989;82;20987;-75
2021/07/10 07:44:01;;;;;;;15.60;7.15;;;;;;;28.52;43.20;100120.97;1743937;82;21539;-75
2021/07/10 07:46:28;;;;;;;11.60;6.78;;;;;;;28.55;42.04;100118.86;1746500;81;21900;-75
2021/07/10 07:48:54;;;;;;;15.32;6.80;;;;;;;28.43;42.57;100111.26;1749257;81;21728;-74
2021/07/10 07:51:22;;;;;;;11.88;6.37;;;;;;;28.44;42.97;100111.48;1752575;81;20982;-76
2021/07/10 07:53:49;;;;;;;15.85;6.45;;;;;;;28.52;42.86;100116.82;1753102;81;21054;-75
2021/07/10 07:56:15;;;;;;;12.03;6.45;;;;;;;28.59;42.61;100119.73;1753196;81;21469;-75
2021/07/10 07:58:44;;;;;;;15.70;7.40;;;;;;;28.70;42.73;100124.73;1753361;81;23010;-74
2021/07/10 08:01:11;;;;;;;11.18;7.12;;;;;;;28.75;42.26;100125.28;1753131;81;21030;-75
2021/07/10 08:03:38;;;;;;;17.62;6.85;;;;;;;28.81;42.04;100128.58;1742577;81;21575;-75
2021/07/10 08:06:06;;;;;;;12.68;6.47;;;;;;;28.90;41.98;100127.22;1716801;82;21015;-75
2021/07/10 08:08:36;;;;;;;19.05;7.47;;;;;;;29.02;41.56;100133.19;1740114;82;21598;-75
2021/07/10 08:11:06;;;;;;;8.93;5.58;;;;;;;29.12;41.43;100134.01;1740232;82;20978;-76
2021/07/10 08:13:34;;;;;;;10.82;5.33;;;;;;;29.23;40.88;100133.66;1740069;82;20990;-78
2021/07/10 08:16:01;;;;;;;8.00;6.17;;;;;;;29.34;40.56;100137.49;1716807;82;21436;-75
2021/07/10 08:18:29;;;;;;;11.68;6.08;;;;;;;29.45;40.30;100142.65;1740062;82;21548;-74
2021/07/10 08:20:55;;;;;;;7.30;5.62;;;;;;;29.56;40.11;100125.43;1747396;81;21026;-75
2021/07/10 08:23:22;;;;;;;11.22;6.08;;;;;;;29.61;39.46;100128.71;1753023;81;21512;-74
2021/07/10 08:25:48;;;;;;;7.33;5.95;;;;;;;29.54;39.28;100127.78;1745498;81;20965;-74
2021/07/10 08:28:15;;;;;;;7.33;6.60;;;;;;;29.54;39.63;100132.75;1753116;81;21003;-73
2021/07/10 08:30:41;;;;;;;9.03;5.85;;;;;;;29.59;39.15;100133.84;1753074;81;21019;-74
2021/07/10 08:33:08;;;;;;;6.37;5.78;;;;;;;29.69;38.75;100124.89;1731720;81;21020;-73
2021/07/10 08:35:34;;;;;;;7.75;4.95;;;;;;;29.75;38.66;100128.17;1731760;81;21054;-74
2021/07/10 08:38:01;;;;;;;8.40;5.45;;;;;;;29.69;38.58;100124.89;1751059;81;20986;-74
2021/07/10 08:40:27;;;;;;;9.50;5.08;;;;;;;29.67;39.00;100131.99;1740033;82;21007;-74
2021/07/10 08:42:53;;;;;;;6.05;5.28;;;;;;;29.68;38.82;100136.38;1746064;81;21062;-72
2021/07/10 08:45:19;;;;;;;8.60;5.50;;;;;;;29.64;39.12;100124.41;1752860;81;20957;-74
2021/07/10 08:47:46;;;;;;;6.85;6.25;;;;;;;29.45;39.45;100116.90;1741723;82;21527;-74
2021/07/10 08:50:16;;;;;;;13.15;5.85;;;;;;;29.38;40.11;100115.39;1741567;82;20999;-74
2021/07/10 08:52:43;;;;;;;10.03;5.08;;;;;;;29.39;39.91;100113.64;1741696;82;21736;-74
2021/07/10 08:55:11;;;;;;;12.00;5.33;;;;;;;29.51;39.58;100116.02;1741760;82;21563;-74
2021/07/10 08:57:38;;;;;;;21.77;9.25;;;;;;;29.58;39.00;100118.95;1741635;82;22274;-74
2021/07/10 09:00:14;;;;;;;11.63;5.95;;;;;;;29.58;38.99;100110.63;1741467;82;21323;-73
2021/07/10 09:02:44;;;;;;;10.95;6.47;;;;;;;29.56;39.12;100116.53;1724197;82;21020;-73
2021/07/10 09:05:11;;;;;;;6.15;5.45;;;;;;;29.57;39.52;100107.63;1741564;82;21555;-73
2021/07/10 09:08:21;;;;;;;7.03;4.40;;;;;;;29.60;39.85;100107.69;1741242;82;20999;-74
2021/07/10 09:11:13;;;;;;;8.50;5.83;;;;;;;29.59;39.22;100111.66;1741827;82;20971;-74
2021/07/10 09:13:54;;;;;;;5.42;4.92;;;;;;;29.54;39.34;100112.53;1741550;82;22100;-73
2021/07/10 09:16:32;;;;;;;12.60;5.72;;;;;;;29.57;39.67;100104.86;1741142;82;21543;-73
2021/07/10 09:19:05;;;;;;;5.65;4.75;;;;;;;29.63;39.37;100106.98;1741619;82;21452;-74
2021/07/10 09:21:45;;;;;;;11.65;5.47;;;;;;;29.67;38.62;100107.84;1724305;82;21039;-74
2021/07/10 09:24:15;;;;;;;8.35;6.25;;;;;;;29.66;38.71;100109.59;1722174;82;21046;-73
2021/07/10 09:26:48;;;;;;;9.48;5.72;;;;;;;29.67;38.76;100113.39;1724294;82;21323;-73
2021/07/10 09:29:25;;;;;;;5.47;4.97;;;;;;;29.75;39.02;100113.72;1723671;82;20982;-74
2021/07/10 09:31:58;;;;;;;6.58;5.03;;;;;;;29.85;39.26;100106.77;1741434;82;21488;-73
2021/07/10 09:34:37;;;;;;;7.42;5.85;;;;;;;29.98;39.23;100106.02;1741492;82;21002;-74
2021/07/10 09:37:08;;;;;;;7.35;4.75;;;;;;;30.07;38.81;100102.44;1741810;82;21038;-74
2021/07/10 09:39:41;;;;;;;13.78;5.95;;;;;;;30.16;38.51;100104.38;1724386;82;21133;-74
2021/07/10 09:42:05;;;;;;;10.65;6.10;;;;;;;30.17;38.11;100101.80;1732911;82;21057;-74
2021/07/10 09:44:46;;;;;;;9.60;6.28;;;;;;;30.17;38.03;100098.44;1720508;82;20978;-73
2021/07/10 09:47:14;;;;;;;8.43;6.45;;;;;;;30.23;37.97;100094.77;1741285;82;21002;-73
2021/07/10 09:49:47;;;;;;;5.67;5.05;;;;;;;30.26;37.93;100084.33;1741651;82;21175;-72
2021/07/10 09:52:16;;;;;;;18.42;6.80;;;;;;;30.36;37.88;100089.22;1739469;82;21011;-73
2021/07/10 09:54:53;;;;;;;5.70;5.20;;;;;;;30.41;37.63;100085.35;1724050;82;21495;-74
2021/07/10 09:57:24;;;;;;;19.85;6.42;;;;;;;30.49;37.49;100088.47;1740930;82;21098;-74
2021/07/10 09:59:53;;;;;;;13.25;5.92;;;;;;;30.61;37.26;100079.91;1722558;82;21090;-75
2021/07/10 10:02:30;;;;;;;6.12;5.53;;;;;;;30.75;37.31;100078.13;1740337;82;21004;-74
2021/07/10 10:05:06;;;;;;;6.85;5.50;;;;;;;30.89;36.91;100078.91;1740523;82;21121;-74
2021/07/10 10:07:50;;;;;;;9.40;5.45;;;;;;;30.92;36.46;100071.23;1741423;82;21548;-73
2021/07/10 10:10:31;;;;;;;7.42;5.95;;;;;;;30.98;36.04;100070.31;1741294;82;20927;-72
2021/07/10 10:13:13;;;;;;;5.72;5.05;;;;;;;30.97;35.88;100075.06;1740958;82;21046;-73
2021/07/10 10:15:45;;;;;;;5.92;4.65;;;;;;;30.94;36.01;100073.02;1740184;82;20954;-73
2021/07/10 10:18:16;;;;;;;6.97;6.17;;;;;;;30.89;36.23;100069.80;1728298;82;20990;-73
2021/07/10 10:20:44;;;;;;;5.25;4.75;;;;;;;30.92;36.35;100068.45;1710948;83;21595;-75
2021/07/10 10:23:11;;;;;;;6.58;4.67;;;;;;;31.02;35.94;100073.38;1735604;82;21031;-74
2021/07/10 10:25:38;;;;;;;8.05;6.60;;;;;;;31.02;35.55;100067.82;1741076;82;21087;-74
2021/07/10 10:28:07;;;;;;;6.53;5.33;;;;;;;31.04;35.89;100061.86;1734608;82;21041;-73
2021/07/10 10:30:33;;;;;;;6.30;5.65;;;;;;;31.15;36.06;100051.09;1723856;82;21229;-74
2021/07/10 10:32:59;;;;;;;5.80;5.15;;;;;;;31.30;35.96;100054.84;1741427;82;21012;-73
2021/07/10 10:35:26;;;;;;;5.90;4.72;;;;;;;31.41;35.48;100054.37;1723854;82;21086;-74
2021/07/10 10:37:52;;;;;;;5.05;4.53;;;;;;;31.47;35.59;100049.25;1741351;82;21063;-77
2021/07/10 10:40:24;;;;;;;5.53;4.83;;;;;;;31.56;35.36;100060.30;1741459;82;21074;-76
2021/07/10 10:42:55;;;;;;;8.00;5.60;;;;;;;31.65;35.13;100055.03;1741456;82;21991;-74
2021/07/10 10:45:32;;;;;;;6.33;5.83;;;;;;;31.74;34.91;100045.78;1741504;82;20896;-74
2021/07/10 10:48:00;;;;;;;10.48;5.33;;;;;;;31.83;34.56;100040.70;1741362;82;21031;-75
2021/07/10 10:50:34;;;;;;;12.25;6.00;;;;;;;31.90;34.27;100047.70;1741440;82;21014;-74
2021/07/10 10:53:00;;;;;;;9.95;5.33;;;;;;;31.94;34.14;100054.12;1724361;82;21070;-74
2021/07/10 10:55:48;;;;;;;6.40;4.90;;;;;;;31.97;34.09;100046.38;1741356;82;21187;-76
2021/07/10 10:58:26;;;;;;;9.18;6.55;;;;;;;31.91;33.42;100054.28;1741217;81;20960;-70
2021/07/10 11:01:07;;;;;;;6.72;6.12;;;;;;;31.83;33.64;100044.87;1741562;82;21067;-71
2021/07/10 11:03:49;;;;;;;5.25;4.85;;;;;;;31.82;33.56;100048.23;1741284;82;21433;-73
2021/07/10 11:06:39;;;;;;;5.85;4.45;;;;;;;31.85;33.99;100036.33;1722039;82;20920;-70
2021/07/10 11:09:02;;;;;;;10.15;5.72;;;;;;;31.93;34.22;100042.77;1692404;83;21126;-69
2021/07/10 11:11:32;;;;;;;6.37;5.22;;;;;;;31.98;33.84;100034.88;1732360;82;21441;-72
2021/07/10 11:14:10;;;;;;;9.95;5.42;;;;;;;32.10;33.95;100029.61;1739988;82;21104;-74
2021/07/10 11:17:07;;;;;;;7.67;6.40;;;;;;;32.23;33.38;100030.11;1739754;82;20901;-69
2021/07/10 11:19:46;;;;;;;5.72;4.60;;;;;;;32.27;33.37;100030.34;1740376;82;21563;-70
2021/07/10 11:22:39;;;;;;;10.20;5.85;;;;;;;32.33;33.20;100023.20;1741592;82;21058;-72
2021/07/10 11:25:07;;;;;;;5.20;4.67;;;;;;;32.40;33.09;100021.06;1689809;82;20992;-74